Time;durP1;ratioP1;P1;durP2;ratioP2;P2;SDS_P1;SDS_P2;PMS_P1;PMS_P2;Temp;Humidity;BMP_temperature;BMP_pressure;BME280_temperature;BME280_humidity;BME280_pressure;Samples;Min_cycle;Max_cycle;Signal;HPM_P1;HPM_P2
2022/06/07 00:00:30;;;;;;;3.97;2.60;;;13.50;99.90;;;;;;4951898;28;20213;-74
2022/06/07 00:03:15;;;;;;;2.77;2.57;;;13.50;99.90;;;;;;4938854;28;20622;-75
2022/06/07 00:05:59;;;;;;;2.77;2.57;;;13.50;99.90;;;;;;4932109;28;20254;-74
2022/06/07 00:08:43;;;;;;;3.00;2.70;;;13.50;99.90;;;;;;4938334;28;20631;-74
2022/06/07 00:11:28;;;;;;;3.00;2.50;;;13.50;99.90;;;;;;4938735;28;20221;-75
2022/06/07 00:14:12;;;;;;;3.00;2.70;;;13.40;99.90;;;;;;4937167;28;20194;-75
2022/06/07 00:16:56;;;;;;;2.73;2.53;;;13.40;99.90;;;;;;4928842;28;20194;-74
2022/06/07 00:19:41;;;;;;;2.63;2.43;;;13.40;99.90;;;;;;4931931;29;20203;-74
2022/06/07 00:22:25;;;;;;;2.47;2.27;;;13.40;99.90;;;;;;4934152;28;20202;-73
2022/06/07 00:25:11;;;;;;;4.13;2.90;;;13.40;99.90;;;;;;4940007;28;20317;-74
2022/06/07 00:27:56;;;;;;;2.67;2.47;;;13.40;99.90;;;;;;4939107;28;20206;-74
2022/06/07 00:30:41;;;;;;;2.60;2.40;;;13.40;99.90;;;;;;4940547;28;20210;-74
2022/06/07 00:33:26;;;;;;;4.97;2.43;;;13.40;99.90;;;;;;4935985;28;20194;-75
2022/06/07 00:36:10;;;;;;;2.23;2.10;;;13.40;99.90;;;;;;4935594;28;20221;-74
2022/06/07 00:38:54;;;;;;;2.43;2.13;;;13.40;99.90;;;;;;4937652;29;20199;-74
2022/06/07 00:41:39;;;;;;;2.93;2.07;;;13.40;99.90;;;;;;4948798;28;20221;-73
2022/06/07 00:44:26;;;;;;;5.37;2.50;;;13.30;99.90;;;;;;4937286;28;20222;-73
2022/06/07 00:47:15;;;;;;;3.27;2.53;;;13.30;99.90;;;;;;4935668;28;20295;-74
2022/06/07 00:50:14;;;;;;;2.30;2.20;;;13.30;99.90;;;;;;4951146;28;20566;-75
2022/06/07 00:52:59;;;;;;;3.23;2.40;;;13.20;99.90;;;;;;4943371;28;20674;-74
2022/06/07 00:55:44;;;;;;;2.30;2.10;;;13.20;99.90;;;;;;4934479;28;20226;-74
2022/06/07 00:58:29;;;;;;;3.23;2.60;;;13.20;99.90;;;;;;4936298;28;20210;-74
2022/06/07 01:01:13;;;;;;;3.20;2.70;;;13.20;99.90;;;;;;4937597;28;20225;-75
2022/06/07 01:03:58;;;;;;;2.77;2.57;;;13.20;99.90;;;;;;4933948;28;20195;-74
2022/06/07 01:12:49;;;;;;;2.90;2.60;;;13.20;99.90;;;;;;4949522;28;20272;-75
2022/06/07 01:15:33;;;;;;;4.83;3.30;;;13.20;99.90;;;;;;4932064;28;20753;-75
2022/06/07 01:18:17;;;;;;;3.03;2.80;;;13.20;99.90;;;;;;4939838;28;20185;-74
2022/06/07 01:21:14;;;;;;;2.97;2.77;;;13.20;99.90;;;;;;4934807;28;20270;-74
2022/06/07 01:23:58;;;;;;;4.77;3.00;;;13.20;99.90;;;;;;4951787;28;20232;-75
2022/06/07 01:26:43;;;;;;;5.40;2.53;;;13.10;99.90;;;;;;4938966;29;20238;-75
2022/06/07 01:29:27;;;;;;;2.50;2.30;;;13.10;99.90;;;;;;4932660;28;20202;-74
2022/06/07 01:32:12;;;;;;;2.40;2.20;;;13.10;99.90;;;;;;4950888;28;20217;-74
2022/06/07 01:34:57;;;;;;;3.83;2.33;;;13.10;99.90;;;;;;4936660;28;20217;-75
2022/06/07 01:37:41;;;;;;;3.63;2.43;;;13.10;99.90;;;;;;4938808;28;20226;-73
2022/06/07 01:43:28;;;;;;;2.40;2.20;;;13.10;99.90;;;;;;4948984;28;20221;-74
2022/06/07 01:46:12;;;;;;;2.50;2.30;;;13.10;99.90;;;;;;4934130;28;20215;-74
2022/06/07 01:48:56;;;;;;;3.83;2.60;;;13.10;99.90;;;;;;4931664;28;20199;-75
2022/06/07 01:51:41;;;;;;;6.20;3.30;;;13.10;99.90;;;;;;4927864;28;20221;-74
2022/06/07 01:54:25;;;;;;;2.80;2.60;;;13.10;99.90;;;;;;4940143;28;20293;-74
2022/06/07 01:57:10;;;;;;;4.10;2.50;;;13.10;99.90;;;;;;4948569;28;20225;-73
2022/06/07 01:59:55;;;;;;;2.60;2.40;;;13.10;99.90;;;;;;4937455;28;20222;-74
2022/06/07 02:02:40;;;;;;;3.40;2.47;;;13.10;99.90;;;;;;4932249;28;20225;-75
2022/06/07 02:05:24;;;;;;;3.97;2.93;;;13.10;99.90;;;;;;4935484;28;20197;-74
2022/06/07 02:08:09;;;;;;;4.20;3.00;;;13.00;99.90;;;;;;4935455;28;20222;-73
2022/06/07 02:10:54;;;;;;;5.10;3.30;;;13.10;99.90;;;;;;4941332;28;20237;-74
2022/06/07 02:13:40;;;;;;;4.73;4.20;;;13.10;99.90;;;;;;4931612;29;20194;-74
2022/06/07 02:16:25;;;;;;;4.27;3.87;;;13.10;99.90;;;;;;4936684;28;20226;-74
2022/06/07 02:19:09;;;;;;;4.33;3.93;;;13.10;99.90;;;;;;4935854;28;20275;-75
2022/06/07 02:21:53;;;;;;;5.00;4.60;;;13.10;99.90;;;;;;4933451;29;20229;-75
2022/06/07 02:24:37;;;;;;;4.87;4.37;;;13.10;99.90;;;;;;4931532;29;20194;-74
2022/06/07 02:27:23;;;;;;;5.27;4.77;;;13.10;99.90;;;;;;4932281;28;20606;-75
2022/06/07 02:30:09;;;;;;;9.13;4.77;;;13.10;99.90;;;;;;4936822;28;20206;-74
2022/06/07 02:32:53;;;;;;;5.40;4.90;;;13.10;99.90;;;;;;4935267;29;20209;-73
2022/06/07 02:35:40;;;;;;;5.70;5.03;;;13.10;99.90;;;;;;4935323;28;20238;-74
2022/06/07 02:38:24;;;;;;;6.20;5.60;;;13.10;99.90;;;;;;4949410;28;20182;-73
2022/06/07 02:41:12;;;;;;;6.17;5.57;;;13.10;99.90;;;;;;4934874;28;20226;-74
2022/06/07 02:43:56;;;;;;;7.70;6.77;;;13.10;99.90;;;;;;4937942;28;20257;-75
2022/06/07 02:46:40;;;;;;;7.70;6.67;;;13.10;99.90;;;;;;4938613;28;20273;-72
2022/06/07 02:49:24;;;;;;;8.13;7.40;;;13.10;99.90;;;;;;4943700;28;20193;-73
2022/06/07 02:52:08;;;;;;;8.23;7.20;;;13.20;99.90;;;;;;4933373;28;20226;-73
2022/06/07 02:54:52;;;;;;;9.83;7.33;;;13.20;99.90;;;;;;4933982;29;20209;-74
2022/06/07 02:57:37;;;;;;;8.80;7.57;;;13.20;99.90;;;;;;4940052;28;20246;-75
2022/06/07 03:00:24;;;;;;;9.30;8.23;;;13.20;99.90;;;;;;4929463;28;20178;-74
2022/06/07 03:03:09;;;;;;;9.67;8.50;;;13.20;99.90;;;;;;4938414;28;20225;-73
2022/06/07 03:05:54;;;;;;;9.90;8.40;;;13.20;99.90;;;;;;4935519;28;20293;-76
2022/06/07 03:08:38;;;;;;;9.50;8.53;;;13.20;99.90;;;;;;4939071;29;20218;-74
2022/06/07 03:11:23;;;;;;;10.47;9.03;;;13.20;99.90;;;;;;4936875;28;20266;-75
2022/06/07 03:14:11;;;;;;;12.97;9.43;;;13.20;99.90;;;;;;4945469;28;20243;-74
2022/06/07 03:16:59;;;;;;;10.77;9.57;;;13.20;99.90;;;;;;4950273;28;20185;-74
2022/06/07 03:19:43;;;;;;;10.40;9.30;;;13.20;99.90;;;;;;4942902;29;20234;-75
2022/06/07 03:22:28;;;;;;;11.00;9.90;;;13.20;99.90;;;;;;4947174;28;20709;-73
2022/06/07 03:25:12;;;;;;;13.13;9.93;;;13.20;99.90;;;;;;4929828;28;20206;-74
2022/06/07 03:28:03;;;;;;;14.50;10.57;;;13.20;99.90;;;;;;4940673;28;20194;-72
2022/06/07 03:31:04;;;;;;;13.87;10.93;;;13.20;99.90;;;;;;4939645;29;20186;-74
2022/06/07 03:33:49;;;;;;;12.33;10.87;;;13.20;99.90;;;;;;4948819;28;20659;-74
2022/06/07 03:36:33;;;;;;;11.73;10.53;;;13.20;99.90;;;;;;4938596;28;20237;-75
2022/06/07 03:39:17;;;;;;;13.67;11.33;;;13.20;99.90;;;;;;4941573;28;20206;-73
2022/06/07 03:42:02;;;;;;;14.97;12.07;;;13.20;99.90;;;;;;4936073;28;20272;-74
2022/06/07 03:44:48;;;;;;;15.27;12.17;;;13.20;99.90;;;;;;4937899;29;20226;-73
2022/06/07 03:47:34;;;;;;;15.17;12.57;;;13.20;99.90;;;;;;4937300;28;20217;-74
2022/06/07 03:50:18;;;;;;;16.83;12.93;;;13.30;99.90;;;;;;4941788;28;20218;-73
2022/06/07 03:53:02;;;;;;;17.03;13.10;;;13.30;99.90;;;;;;4936892;28;20297;-74
2022/06/07 03:55:47;;;;;;;17.23;14.10;;;13.30;99.90;;;;;;4935535;29;20217;-74
2022/06/07 03:58:31;;;;;;;17.87;14.07;;;13.30;99.90;;;;;;4937144;28;20231;-74
2022/06/07 04:01:17;;;;;;;20.53;14.60;;;13.30;99.90;;;;;;4936057;28;20210;-74
2022/06/07 04:04:05;;;;;;;20.60;15.67;;;13.30;99.90;;;;;;4933642;28;20186;-74
2022/06/07 04:09:53;;;;;;;22.77;16.93;;;13.40;99.90;;;;;;4949525;28;20666;-72
2022/06/07 04:12:37;;;;;;;23.40;17.47;;;13.40;99.90;;;;;;4940645;28;20245;-74
2022/06/07 04:15:21;;;;;;;24.83;17.30;;;13.40;99.90;;;;;;4940613;28;20242;-72
2022/06/07 04:18:06;;;;;;;25.93;19.40;;;13.40;99.90;;;;;;4937398;28;20242;-77
2022/06/07 04:20:50;;;;;;;27.23;18.27;;;13.40;99.90;;;;;;4936065;29;20275;-74
2022/06/07 04:23:36;;;;;;;28.90;18.67;;;13.40;99.90;;;;;;4940553;28;20268;-74
2022/06/07 04:26:24;;;;;;;25.83;17.80;;;13.50;99.90;;;;;;4938285;28;20197;-75
2022/06/07 04:29:08;;;;;;;25.00;17.13;;;13.50;99.90;;;;;;4939082;28;20272;-75
2022/06/07 04:31:52;;;;;;;27.90;18.13;;;13.50;99.90;;;;;;4935057;29;20262;-75
2022/06/07 04:34:36;;;;;;;27.97;17.80;;;13.50;99.90;;;;;;4933736;28;20213;-73
2022/06/07 04:37:20;;;;;;;24.33;17.53;;;13.50;99.90;;;;;;4938551;28;20190;-74
2022/06/07 04:40:05;;;;;;;26.67;18.07;;;13.50;99.90;;;;;;4935685;28;20233;-75
2022/06/07 04:42:49;;;;;;;23.00;18.20;;;13.50;99.90;;;;;;4934863;29;20225;-74
2022/06/07 04:45:33;;;;;;;24.83;18.07;;;13.50;99.90;;;;;;4938904;28;20242;-74
2022/06/07 04:48:18;;;;;;;26.00;17.80;;;13.50;99.90;;;;;;4937495;28;20347;-74
2022/06/07 04:51:05;;;;;;;26.47;17.93;;;13.50;99.90;;;;;;4932099;28;20278;-77
2022/06/07 04:53:50;;;;;;;26.40;18.30;;;13.50;99.90;;;;;;4939021;29;20253;-73
2022/06/07 04:56:36;;;;;;;25.87;17.23;;;13.50;99.90;;;;;;4933933;28;20902;-75
2022/06/07 04:59:21;;;;;;;23.83;18.03;;;13.50;99.90;;;;;;4938169;28;20182;-75
2022/06/07 05:02:05;;;;;;;22.57;17.37;;;13.60;99.90;;;;;;4938145;28;20209;-75
2022/06/07 05:04:49;;;;;;;25.80;17.83;;;13.60;99.90;;;;;;4930974;29;20194;-74
2022/06/07 05:07:33;;;;;;;24.80;17.63;;;13.60;99.90;;;;;;4942547;28;20197;-74
2022/06/07 05:10:17;;;;;;;25.93;17.90;;;13.70;99.90;;;;;;4938901;28;20198;-75
2022/06/07 05:13:03;;;;;;;24.17;17.17;;;13.70;99.90;;;;;;4937211;28;20829;-73
2022/06/07 05:15:54;;;;;;;22.33;17.73;;;13.70;99.90;;;;;;4942610;28;20209;-74
2022/06/07 05:18:39;;;;;;;25.40;17.67;;;13.70;99.90;;;;;;4936244;28;20303;-74
2022/06/07 05:21:25;;;;;;;25.20;17.33;;;13.80;99.90;;;;;;4939496;28;20210;-74
2022/06/07 05:24:10;;;;;;;25.97;17.03;;;13.80;99.90;;;;;;4939169;28;20196;-74
2022/06/07 05:26:58;;;;;;;22.70;16.90;;;13.80;99.90;;;;;;4938619;28;20215;-75
2022/06/07 05:29:48;;;;;;;18.90;14.67;;;13.80;99.90;;;;;;4936914;29;20226;-74
2022/06/07 05:32:32;;;;;;;20.60;15.80;;;13.80;99.90;;;;;;4933392;28;20632;-74
2022/06/07 05:35:16;;;;;;;22.13;15.43;;;13.90;99.90;;;;;;4938197;28;20213;-75
2022/06/07 05:38:00;;;;;;;21.17;14.93;;;13.90;99.90;;;;;;4940444;28;20198;-73
2022/06/07 05:40:44;;;;;;;19.50;14.07;;;13.90;99.90;;;;;;4942632;28;20198;-73
2022/06/07 05:43:28;;;;;;;19.57;14.17;;;13.90;99.90;;;;;;4945676;28;20190;-73
2022/06/07 05:46:12;;;;;;;21.87;13.67;;;13.90;99.90;;;;;;4946119;28;20197;-73
2022/06/07 05:48:56;;;;;;;16.73;13.10;;;13.90;99.90;;;;;;4951973;28;20193;-73
2022/06/07 05:51:41;;;;;;;19.73;13.40;;;13.90;99.90;;;;;;4940836;28;20287;-72
2022/06/07 05:54:25;;;;;;;20.40;13.57;;;13.90;99.90;;;;;;4934228;28;20190;-73
2022/06/07 05:57:10;;;;;;;17.07;12.73;;;13.90;99.90;;;;;;4940635;28;20186;-73
2022/06/07 05:59:54;;;;;;;17.87;13.40;;;13.90;99.90;;;;;;4939339;29;20263;-73
2022/06/07 06:02:38;;;;;;;16.93;12.77;;;13.80;99.90;;;;;;4931845;29;20217;-73
2022/06/07 06:05:22;;;;;;;20.43;13.03;;;13.80;99.90;;;;;;4937525;28;20208;-73
2022/06/07 06:11:17;;;;;;;16.30;11.87;;;13.90;99.90;;;;;;4955680;28;20326;-74
2022/06/07 06:14:02;;;;;;;16.13;11.40;;;13.90;99.90;;;;;;4932977;28;20229;-73
2022/06/07 06:16:47;;;;;;;15.10;12.07;;;13.90;99.90;;;;;;4933247;28;20274;-73
2022/06/07 06:19:31;;;;;;;16.63;12.07;;;13.90;99.90;;;;;;4934695;28;20202;-73
2022/06/07 06:22:15;;;;;;;16.47;12.03;;;13.90;99.90;;;;;;4932995;28;20261;-73
2022/06/07 06:24:59;;;;;;;15.07;11.77;;;13.90;99.90;;;;;;4932562;28;20217;-73
2022/06/07 06:27:43;;;;;;;17.60;12.27;;;13.90;99.90;;;;;;4941433;28;20198;-74
2022/06/07 06:30:28;;;;;;;18.40;12.13;;;13.90;99.90;;;;;;4938606;28;20226;-75
2022/06/07 06:33:12;;;;;;;16.43;11.43;;;13.90;99.90;;;;;;4937336;28;20220;-73
2022/06/07 06:35:57;;;;;;;19.23;12.47;;;13.90;99.90;;;;;;4934229;28;20257;-74
2022/06/07 06:38:43;;;;;;;16.73;12.20;;;14.00;99.90;;;;;;4937163;29;20194;-73
2022/06/07 06:41:32;;;;;;;17.23;12.20;;;14.00;99.90;;;;;;4930077;28;20241;-73
2022/06/07 06:44:17;;;;;;;16.27;11.63;;;14.00;99.90;;;;;;4935198;28;20238;-73
2022/06/07 06:47:03;;;;;;;16.73;13.13;;;14.00;99.90;;;;;;4930243;28;20205;-74
2022/06/07 06:49:47;;;;;;;16.13;12.20;;;14.10;99.90;;;;;;4926103;29;20186;-74
2022/06/07 06:52:32;;;;;;;16.73;12.87;;;14.10;99.90;;;;;;4930398;28;20256;-74
2022/06/07 06:55:16;;;;;;;14.13;12.13;;;14.20;99.90;;;;;;4936464;28;20197;-74
2022/06/07 06:58:00;;;;;;;16.20;11.73;;;14.20;99.90;;;;;;4933004;28;20202;-74
2022/06/07 07:00:44;;;;;;;16.80;12.90;;;14.20;99.90;;;;;;4937099;28;20241;-73
2022/06/07 07:03:29;;;;;;;15.03;12.87;;;14.20;99.90;;;;;;4930566;28;20202;-73
2022/06/07 07:06:15;;;;;;;17.20;13.37;;;14.30;99.90;;;;;;4950222;28;20793;-73
2022/06/07 07:09:00;;;;;;;16.33;13.53;;;14.30;99.90;;;;;;4929103;28;20198;-73
2022/06/07 07:11:47;;;;;;;16.67;12.40;;;14.30;99.90;;;;;;4937823;28;20249;-74
2022/06/07 07:14:32;;;;;;;14.50;12.90;;;14.40;99.90;;;;;;4942172;28;20261;-74
2022/06/07 07:17:16;;;;;;;16.57;13.50;;;14.30;99.90;;;;;;4954140;28;20308;-73
2022/06/07 07:20:00;;;;;;;17.30;13.00;;;14.30;99.90;;;;;;4950366;28;20206;-74
2022/06/07 07:22:44;;;;;;;19.15;17.05;;;14.30;99.90;;;;;;4941213;28;20404;-73
2022/06/07 07:25:28;;;;;;;16.73;14.83;;;14.30;99.90;;;;;;4935550;28;20209;-74
2022/06/07 07:28:12;;;;;;;16.17;12.90;;;14.40;99.90;;;;;;4933973;28;20186;-73
2022/06/07 07:31:02;;;;;;;17.47;12.70;;;14.40;99.90;;;;;;4936239;28;20234;-74
2022/06/07 07:33:46;;;;;;;17.77;15.88;;;14.40;99.90;;;;;;4948055;28;20400;-73
2022/06/07 07:36:31;;;;;;;17.67;13.40;;;14.40;99.90;;;;;;4942577;28;20234;-74
2022/06/07 07:39:16;;;;;;;15.27;13.67;;;14.40;99.90;;;;;;4939211;28;20293;-74
2022/06/07 07:42:00;;;;;;;16.43;13.43;;;14.50;99.90;;;;;;4930908;28;20218;-74
2022/06/07 07:44:44;;;;;;;19.03;17.03;;;14.50;99.90;;;;;;4930854;29;20420;-73
2022/06/07 07:47:29;;;;;;;19.17;17.15;;;14.50;99.90;;;;;;4928066;28;20432;-74
2022/06/07 07:50:13;;;;;;;21.48;17.15;;;14.50;99.90;;;;;;4939429;28;20422;-73
2022/06/07 07:52:58;;;;;;;19.75;17.10;;;14.60;99.90;;;;;;4944978;28;20460;-74
2022/06/07 07:55:47;;;;;;;19.08;17.05;;;14.60;99.90;;;;;;4933929;29;20440;-73
2022/06/07 07:58:32;;;;;;;18.43;14.47;;;14.70;99.90;;;;;;4942997;28;20250;-74
2022/06/07 08:01:18;;;;;;;18.13;14.70;;;14.70;99.90;;;;;;4938006;28;20217;-74
2022/06/07 08:04:03;;;;;;;19.92;17.67;;;14.80;99.90;;;;;;4959455;28;20389;-74
2022/06/07 08:06:47;;;;;;;17.73;14.73;;;14.90;99.90;;;;;;4939823;29;20230;-74
2022/06/07 08:09:31;;;;;;;17.93;14.50;;;15.00;99.90;;;;;;4936366;28;20190;-74
2022/06/07 08:12:15;;;;;;;20.20;17.73;;;15.00;99.90;;;;;;4947155;28;20454;-74
2022/06/07 08:15:00;;;;;;;21.50;19.23;;;15.10;99.90;;;;;;4938240;28;20422;-74
2022/06/07 08:17:44;;;;;;;18.93;16.07;;;15.10;99.90;;;;;;4937263;28;20238;-74
2022/06/07 08:20:31;;;;;;;22.03;18.97;;;15.10;99.90;;;;;;4941138;28;20549;-74
2022/06/07 08:23:16;;;;;;;19.98;17.90;;;15.20;99.90;;;;;;4951242;28;20449;-73
2022/06/07 08:26:04;;;;;;;18.57;15.70;;;15.30;99.90;;;;;;4937238;28;20215;-74
2022/06/07 08:28:48;;;;;;;22.65;17.80;;;15.30;99.90;;;;;;4941329;28;20396;-74
2022/06/07 08:31:34;;;;;;;19.43;15.97;;;15.30;99.90;;;;;;4937633;28;20242;-75
2022/06/07 08:37:42;;;;;;;17.50;15.80;;;15.50;99.90;;;;;;4949162;28;20624;-75
2022/06/07 08:40:44;;;;;;;18.67;16.67;;;15.60;99.90;;;;;;4957448;28;20448;-77
2022/06/07 08:43:29;;;;;;;15.50;13.90;;;15.80;99.90;;;;;;4945163;28;20238;-75
2022/06/07 08:46:16;;;;;;;15.07;12.87;;;15.90;99.90;;;;;;4940745;28;20197;-75
2022/06/07 08:49:01;;;;;;;14.50;11.60;;;16.00;99.90;;;;;;4931959;28;20191;-75
2022/06/07 08:52:01;;;;;;;12.30;11.10;;;16.10;99.90;;;;;;4933968;29;20249;-75
2022/06/07 08:54:46;;;;;;;15.63;11.80;;;16.30;99.90;;;;;;4935666;29;20217;-74
2022/06/07 08:57:36;;;;;;;15.40;11.10;;;16.40;99.90;;;;;;4939412;28;20210;-74
2022/06/07 09:00:25;;;;;;;12.97;10.83;;;16.50;99.90;;;;;;4948830;28;20197;-75
2022/06/07 09:03:38;;;;;;;17.08;12.80;;;16.50;99.90;;;;;;4936372;28;20468;-74
2022/06/07 09:06:32;;;;;;;11.63;10.43;;;16.60;99.90;;;;;;4950725;28;20270;-74
2022/06/07 09:09:19;;;;;;;14.10;11.00;;;16.60;99.90;;;;;;4949390;28;20244;-74
2022/06/07 09:12:14;;;;;;;11.80;10.60;;;16.50;99.90;;;;;;4934177;28;20318;-74
2022/06/07 09:15:30;;;;;;;12.97;11.27;;;16.50;99.90;;;;;;4944808;28;20225;-73
2022/06/07 09:18:16;;;;;;;13.53;11.43;;;16.50;99.90;;;;;;4942252;28;20198;-73
2022/06/07 09:21:08;;;;;;;15.57;11.83;;;16.50;99.90;;;;;;4946286;28;20560;-74
2022/06/07 09:23:54;;;;;;;15.53;11.60;;;16.50;99.90;;;;;;4937069;28;20235;-74
2022/06/07 09:26:40;;;;;;;12.20;10.93;;;16.50;99.90;;;;;;4937558;28;20282;-75
2022/06/07 09:29:34;;;;;;;14.32;12.82;;;16.50;99.90;;;;;;4943667;28;20399;-73
2022/06/07 09:32:22;;;;;;;15.60;13.35;;;16.60;99.90;;;;;;4960046;28;20408;-74
2022/06/07 09:35:14;;;;;;;14.35;12.98;;;16.60;99.90;;;;;;4944626;28;20791;-74
2022/06/07 09:38:09;;;;;;;13.38;11.98;;;16.70;99.90;;;;;;4954519;28;20416;-74
2022/06/07 09:40:54;;;;;;;13.57;12.18;;;16.80;99.90;;;;;;4933709;28;20465;-73
2022/06/07 09:43:42;;;;;;;14.40;12.25;;;16.90;99.90;;;;;;4946365;28;20409;-74
2022/06/07 09:46:26;;;;;;;14.67;12.57;;;17.00;99.90;;;;;;4945287;28;20415;-74
2022/06/07 09:49:32;;;;;;;14.10;12.60;;;17.00;99.90;;;;;;4936411;28;20393;-74
2022/06/07 09:52:23;;;;;;;15.18;12.52;;;17.00;99.90;;;;;;4957170;28;20415;-73
2022/06/07 09:55:19;;;;;;;12.88;11.65;;;17.00;99.90;;;;;;4933925;28;20452;-74
2022/06/07 09:58:31;;;;;;;12.90;11.23;;;17.00;99.90;;;;;;4947777;28;20217;-74
2022/06/07 10:01:38;;;;;;;15.23;10.73;;;17.00;99.90;;;;;;4940165;28;20237;-73
2022/06/07 10:05:02;;;;;;;12.33;9.97;;;17.00;99.90;;;;;;4952682;28;20193;-71
2022/06/07 10:07:55;;;;;;;9.97;8.97;;;17.00;99.90;;;;;;4945790;28;20251;-71
2022/06/07 10:10:44;;;;;;;10.53;9.17;;;17.00;99.90;;;;;;4944805;28;20222;-71
2022/06/07 10:13:38;;;;;;;12.13;9.73;;;16.90;99.90;;;;;;4949936;28;20287;-71
2022/06/07 10:16:44;;;;;;;10.67;9.53;;;17.00;99.90;;;;;;4948769;28;20245;-71
2022/06/07 10:19:43;;;;;;;12.53;9.47;;;17.00;99.90;;;;;;4950805;28;20286;-71
2022/06/07 10:22:45;;;;;;;13.67;8.23;;;17.00;99.90;;;;;;4945393;28;20640;-71
2022/06/07 10:25:39;;;;;;;9.20;8.03;;;17.00;99.90;;;;;;4942001;28;20241;-74
2022/06/07 10:28:39;;;;;;;10.47;8.57;;;17.00;99.90;;;;;;4954715;28;20613;-72
2022/06/07 10:31:45;;;;;;;11.00;8.90;;;17.00;99.90;;;;;;4943635;28;20216;-72
2022/06/07 10:34:45;;;;;;;9.73;8.57;;;17.00;99.90;;;;;;4948690;28;20273;-71
2022/06/07 10:37:55;;;;;;;10.07;9.00;;;17.10;99.90;;;;;;4935248;28;20186;-72
2022/06/07 10:41:13;;;;;;;10.23;8.50;;;17.10;99.90;;;;;;4932367;29;20202;-74
2022/06/07 10:44:24;;;;;;;7.63;6.83;;;17.20;99.90;;;;;;4921356;28;20231;-72
2022/06/07 10:47:48;;;;;;;8.23;7.43;;;17.10;99.90;;;;;;4930845;28;20282;-73
2022/06/07 10:50:54;;;;;;;9.50;8.47;;;17.10;99.90;;;;;;4940376;28;20270;-74
2022/06/07 10:53:46;;;;;;;9.00;8.03;;;17.10;99.90;;;;;;4933372;28;20202;-74
2022/06/07 10:56:39;;;;;;;9.27;8.37;;;17.10;99.90;;;;;;4932263;28;20314;-74
2022/06/07 10:59:27;;;;;;;9.17;7.53;;;17.10;99.90;;;;;;4938080;28;20186;-74
2022/06/07 11:02:24;;;;;;;10.03;8.07;;;17.10;99.90;;;;;;4951542;28;20218;-74
2022/06/07 11:11:33;;;;;;;10.17;7.93;;;17.40;99.90;;;;;;4948597;28;20257;-74
2022/06/07 11:14:39;;;;;;;7.40;6.70;;;17.40;99.90;;;;;;4950220;28;20237;-74
2022/06/07 11:17:33;;;;;;;7.90;7.17;;;17.40;99.90;;;;;;4944957;28;20191;-73
2022/06/07 11:20:21;;;;;;;8.00;6.80;;;17.50;99.90;;;;;;4944739;28;20198;-72
2022/06/07 11:23:25;;;;;;;8.90;7.63;;;17.60;99.90;;;;;;4924462;28;20702;-72
2022/06/07 11:26:16;;;;;;;7.43;6.67;;;17.60;99.90;;;;;;4961677;28;20186;-72
2022/06/07 11:29:07;;;;;;;7.53;6.73;;;17.70;99.90;;;;;;4934975;28;20432;-72
2022/06/07 11:31:51;;;;;;;8.33;6.33;;;17.80;99.90;;;;;;4937258;29;20297;-72
2022/06/07 11:34:37;;;;;;;6.30;5.67;;;17.80;99.90;;;;;;4936708;28;20242;-73
2022/06/07 11:37:21;;;;;;;6.20;5.30;;;17.80;99.90;;;;;;4936500;28;20742;-74
2022/06/07 11:40:29;;;;;;;6.60;4.70;;;17.80;99.90;;;;;;4955048;28;20281;-74
2022/06/07 11:43:52;;;;;;;5.43;4.90;;;17.80;99.90;;;;;;4948841;28;20210;-74
2022/06/07 11:46:45;;;;;;;5.67;5.10;;;17.70;99.90;;;;;;4937928;28;20210;-75
2022/06/07 11:49:30;;;;;;;10.07;5.40;;;17.80;99.90;;;;;;4952251;28;20201;-75
2022/06/07 11:52:15;;;;;;;6.03;5.50;;;17.70;99.90;;;;;;4938649;28;20233;-75
2022/06/07 11:55:13;;;;;;;6.60;5.70;;;17.70;99.90;;;;;;4937742;28;20241;-73
2022/06/07 11:58:03;;;;;;;6.40;5.20;;;17.80;99.90;;;;;;4949816;28;20194;-75
2022/06/07 12:00:49;;;;;;;9.67;5.13;;;17.80;99.90;;;;;;4954241;28;20186;-75
2022/06/07 12:03:34;;;;;;;6.87;5.57;;;17.90;99.90;;;;;;4947776;28;20241;-74
2022/06/07 12:06:20;;;;;;;9.53;5.40;;;18.00;99.90;;;;;;4953018;28;20210;-75
2022/06/07 12:09:05;;;;;;;6.40;5.80;;;18.10;99.90;;;;;;4952061;28;20205;-73
2022/06/07 12:11:49;;;;;;;6.55;5.88;;;18.20;99.90;;;;;;4936205;28;20226;-74
2022/06/07 12:14:40;;;;;;;6.90;5.50;;;18.30;99.90;;;;;;4954135;28;20226;-75
2022/06/07 12:17:31;;;;;;;6.27;5.67;;;18.40;99.90;;;;;;4937513;28;20230;-74
2022/06/07 12:20:40;;;;;;;8.27;6.47;;;18.50;99.90;;;;;;4937657;28;20201;-75
2022/06/07 12:23:31;;;;;;;7.33;5.67;;;18.50;99.90;;;;;;4942856;28;20190;-75
2022/06/07 12:26:24;;;;;;;6.80;6.13;;;18.50;99.90;;;;;;4941712;28;20194;-76
2022/06/07 12:29:23;;;;;;;7.05;6.35;;;18.50;99.90;;;;;;4941101;28;20286;-76
2022/06/07 12:32:29;;;;;;;7.70;6.17;;;18.50;99.90;;;;;;4935596;28;20246;-75
2022/06/07 12:35:22;;;;;;;6.33;5.70;;;18.40;99.90;;;;;;4954415;28;20289;-75
2022/06/07 12:38:12;;;;;;;8.90;6.28;;;18.50;99.90;;;;;;4934927;28;20182;-75
2022/06/07 12:41:06;;;;;;;6.97;6.00;;;18.40;99.90;;;;;;4933198;28;20218;-75
2022/06/07 12:43:55;;;;;;;6.88;6.07;;;18.50;99.90;;;;;;4939463;28;20050;-76
2022/06/07 12:46:46;;;;;;;6.93;5.90;;;18.50;99.90;;;;;;4951572;28;20694;-74
2022/06/07 12:49:39;;;;;;;8.23;6.47;;;18.60;99.90;;;;;;4937388;28;20246;-75
2022/06/07 12:52:27;;;;;;;7.63;6.47;;;18.60;99.90;;;;;;4933362;28;20268;-74
2022/06/07 12:55:17;;;;;;;6.90;6.00;;;18.50;99.90;;;;;;4940126;28;20612;-75
2022/06/07 12:58:04;;;;;;;9.00;7.20;;;18.50;99.90;;;;;;4936867;28;20453;-74
2022/06/07 13:00:52;;;;;;;8.68;7.38;;;18.50;99.90;;;;;;4943498;28;20435;-75
2022/06/07 13:03:37;;;;;;;7.63;6.30;;;18.40;99.90;;;;;;4938358;28;20393;-75
2022/06/07 13:06:23;;;;;;;7.93;6.93;;;18.50;99.90;;;;;;4937016;28;20435;-74
2022/06/07 13:09:20;;;;;;;8.05;7.10;;;18.50;99.90;;;;;;4931323;28;20475;-74
2022/06/07 13:12:06;;;;;;;8.20;7.30;;;18.60;99.90;;;;;;4939914;28;20544;-73
2022/06/07 13:14:52;;;;;;;9.15;6.80;;;18.60;99.90;;;;;;4953385;28;20205;-74
2022/06/07 13:17:40;;;;;;;10.00;6.63;;;18.70;99.90;;;;;;4931664;28;20190;-74
2022/06/07 13:20:32;;;;;;;6.97;5.60;;;18.70;99.90;;;;;;4948346;28;20189;-75
2022/06/07 13:23:25;;;;;;;7.78;6.03;;;18.90;99.90;;;;;;4954209;28;20214;-75
2022/06/07 13:26:11;;;;;;;11.05;5.55;;;18.90;99.90;;;;;;4948485;28;20264;-75
2022/06/07 13:29:15;;;;;;;6.80;6.15;;;19.10;99.90;;;;;;4938228;28;20416;-75
2022/06/07 13:32:02;;;;;;;6.80;5.70;;;19.10;99.90;;;;;;4934139;28;20398;-74
2022/06/07 13:34:54;;;;;;;6.53;5.82;;;19.10;99.90;;;;;;4941104;29;20405;-74
2022/06/07 13:37:57;;;;;;;6.00;5.40;;;19.20;99.90;;;;;;4952710;28;20476;-75
2022/06/07 13:40:43;;;;;;;6.40;5.32;;;19.30;99.90;;;;;;4924348;28;20432;-75
2022/06/07 13:43:28;;;;;;;6.57;5.40;;;19.40;99.90;;;;;;4936527;28;20390;-74
2022/06/07 13:46:49;;;;;;;6.13;5.53;;;19.40;99.90;;;;;;4947841;28;20421;-74
2022/06/07 13:55:50;;;;;;;7.03;6.13;;;19.40;99.90;;;;;;4952923;28;20421;-75
2022/06/07 13:58:38;;;;;;;6.10;5.50;;;19.50;99.90;;;;;;4960154;28;20581;-75
2022/06/07 14:01:30;;;;;;;6.57;5.97;;;19.50;99.90;;;;;;4951019;28;20398;-74
2022/06/07 14:04:23;;;;;;;8.57;6.78;;;19.50;99.90;;;;;;4955016;28;20403;-75
2022/06/07 14:07:10;;;;;;;7.50;6.20;;;19.50;99.90;;;;;;4939296;28;20925;-75
2022/06/07 14:09:56;;;;;;;7.80;6.32;;;19.50;99.90;;;;;;4932125;29;20490;-75
2022/06/07 14:12:40;;;;;;;7.53;6.73;;;19.50;99.90;;;;;;4947237;28;20444;-74
2022/06/07 14:15:28;;;;;;;8.00;7.20;;;19.50;99.90;;;;;;4950842;28;20455;-74
2022/06/07 14:18:15;;;;;;;8.50;7.63;;;19.40;99.90;;;;;;4941401;28;20453;-75
2022/06/07 14:20:59;;;;;;;10.00;7.00;;;19.40;99.90;;;;;;4939186;28;20422;-74
2022/06/07 14:23:43;;;;;;;7.80;7.00;;;19.40;99.90;;;;;;4929225;28;20425;-75
2022/06/07 14:26:27;;;;;;;7.70;6.90;;;19.50;99.90;;;;;;4932484;28;20453;-75
2022/06/07 14:29:12;;;;;;;6.90;6.30;;;19.60;99.90;;;;;;4946199;28;20444;-74
2022/06/07 14:31:57;;;;;;;7.53;6.00;;;19.80;99.90;;;;;;4936924;28;20449;-74
2022/06/07 14:34:42;;;;;;;7.50;6.70;;;19.80;99.90;;;;;;4941265;28;20801;-73
2022/06/07 14:37:28;;;;;;;6.40;5.80;;;19.90;99.90;;;;;;4927693;28;20533;-74
2022/06/07 14:40:19;;;;;;;6.68;5.97;;;19.80;99.90;;;;;;4928514;28;20420;-75
2022/06/07 14:43:04;;;;;;;7.45;5.40;;;19.80;99.90;;;;;;4940849;28;20464;-75
2022/06/07 14:46:05;;;;;;;6.90;5.25;;;19.80;99.90;;;;;;4933939;28;20420;-75
2022/06/07 14:48:59;;;;;;;5.82;4.88;;;19.80;99.90;;;;;;4943929;29;20856;-76
2022/06/07 14:51:44;;;;;;;6.30;4.93;;;19.90;99.90;;;;;;4932836;29;20225;-74
2022/06/07 14:54:35;;;;;;;5.78;4.55;;;20.00;99.90;;;;;;4933222;28;20702;-75
2022/06/07 14:57:23;;;;;;;5.47;4.80;;;20.00;99.90;;;;;;4948034;28;20217;-74